MDT,Max TemperatureF,Mean TemperatureF,Min TemperatureF,Max Dew PointF,MeanDew PointF,Min DewpointF,Max Humidity, Mean Humidity, Min Humidity, Max Sea Level PressureIn, Mean Sea Level PressureIn, Min Sea Level PressureIn, Max VisibilityMiles, Mean VisibilityMiles, Min VisibilityMiles, Max Wind SpeedMPH, Mean Wind SpeedMPH, Max Gust SpeedMPH,PrecipitationIn, CloudCover, Events, WindDirDegrees
2012-4-1,81,65,49,22,12,5,26,16,6,29.51,29.36,29.23,10,10,10,26,15,32,0.00,1,,209
2012-4-2,58,45,32,31,28,8,76,45,14,30.21,29.86,29.32,10,9,3,29,18,38,T,7,Rain-Snow,5
2012-4-3,32,31,29,32,30,28,100,96,92,30.29,30.17,30.08,10,3,0,25,15,32,0.20,8,Fog-Rain-Snow,332
2012-4-4,58,45,32,39,34,30,100,72,43,30.15,29.97,29.81,10,9,2,14,5,16,T,4,Snow,209
2012-4-5,69,52,34,45,34,24,89,55,20,29.88,29.79,29.71,10,10,10,31,9,39,0.00,1,,160
2012-4-6,73,56,38,43,14,-4,86,46,5,29.92,29.65,29.51,10,10,10,43,19,54,0.00,0,,217
2012-4-7,60,45,29,21,17,10,53,35,17,30.28,30.19,29.99,10,10,10,26,12,32,0.00,0,,133
2012-4-8,69,50,30,25,16,-2,69,38,7,30.27,30.17,30.09,10,10,10,21,8,26,0.00,0,,136
2012-4-9,69,52,35,31,23,19,52,35,17,30.17,30.09,30.03,10,10,10,15,7,18,0.00,0,,73
2012-4-10,76,58,39,47,35,18,92,52,11,30.09,29.98,29.88,10,10,7,25,6,30,0.00,0,,175
2012-4-11,70,57,44,47,45,42,100,69,37,30.09,29.90,29.75,10,8,2,41,10,51,0.20,5,Rain-Thunderstorm,187
2012-4-12,63,52,40,46,39,25,92,59,25,29.82,29.66,29.53,10,10,10,24,9,26,0.06,4,Rain-Thunderstorm,106
2012-4-13,62,49,36,36,22,11,85,50,14,29.78,29.70,29.61,10,10,10,31,10,38,0.00,3,,213
2012-4-14,61,47,32,37,29,16,92,55,18,29.64,29.52,29.36,10,9,2,25,7,31,0.25,5,Rain-Snow,335
2012-4-15,50,41,32,34,31,24,100,71,42,30.04,29.75,29.50,10,8,1,39,12,46,0.04,7,Rain-Snow,325
2012-4-16,57,45,33,33,24,16,92,58,24,30.16,30.10,30.03,10,10,10,13,6,16,0.00,3,,243
2012-4-17,67,52,36,29,23,15,59,38,16,30.15,30.05,29.94,10,10,10,15,7,18,0.00,2,,160
2012-4-18,70,53,36,33,30,26,76,49,21,30.06,29.88,29.75,10,10,10,22,8,29,0.00,3,,148
2012-4-19,61,50,39,42,33,27,93,60,27,30.03,29.90,29.75,10,10,10,24,7,31,T,4,Rain,121
2012-4-20,67,52,37,38,32,28,92,58,24,30.20,30.08,29.99,10,10,10,21,8,30,0.00,3,,318
2012-4-21,74,59,44,36,31,26,50,35,20,30.18,30.04,29.95,10,10,10,18,8,29,0.00,2,,77
2012-4-22,73,56,39,38,33,25,82,50,17,30.23,30.16,30.10,10,10,10,15,6,20,0.00,1,,151
2012-4-23,79,62,44,38,30,25,60,37,14,30.11,30.01,29.88,10,10,10,15,6,17,0.00,1,,178
2012-4-24,85,68,51,36,29,19,46,28,10,29.96,29.80,29.73,10,10,10,26,9,44,T,2,Rain-Thunderstorm,205
2012-4-25,78,63,48,37,29,22,45,29,13,29.89,29.82,29.70,10,10,10,20,7,25,0.00,3,,236
2012-4-26,79,65,50,49,39,34,89,54,19,29.92,29.75,29.51,10,10,7,30,10,39,0.08,5,Rain-Thunderstorm,180
2012-4-27,67,52,37,49,39,25,93,58,22,29.83,29.61,29.46,10,10,7,24,8,30,0.01,4,Rain,360
2012-4-28,60,44,28,30,25,20,78,52,25,29.96,29.90,29.85,10,10,10,24,7,30,0.00,3,,153
2012-4-29,63,48,33,34,32,28,92,63,34,29.99,29.93,29.87,10,10,10,17,8,22,0.00,1,,34
2012-4-30,76,57,37,34,23,12,76,44,11,29.98,29.82,29.64,10,10,10,17,6,23,0.00,1,,155